Time;durP1;ratioP1;P1;durP2;ratioP2;P2;SDS_P1;SDS_P2;PMS_P1;PMS_P2;Temp;Humidity;BMP_temperature;BMP_pressure;BME280_temperature;BME280_humidity;BME280_pressure;Samples;Min_cycle;Max_cycle;Signal;HPM_P1;HPM_P2
2022/05/02 00:02:06;;;;;;;3.20;2.90;;;;;;;;;;5006678;28;20199;-64
2022/05/02 00:04:36;;;;;;;3.53;3.23;;;;;;;;;;5017994;28;20195;-64
2022/05/02 00:07:04;;;;;;;3.10;2.90;;;;;;;;;;5014857;28;20192;-64
2022/05/02 00:09:31;;;;;;;3.57;3.30;;;;;;;;;;5008534;28;20518;-64
2022/05/02 00:12:01;;;;;;;3.27;3.07;;;;;;;;;;5002210;28;20216;-64
2022/05/02 00:14:33;;;;;;;3.20;3.00;;;;;;;;;;5006361;28;20570;-64
2022/05/02 00:17:01;;;;;;;3.67;3.37;;;;;;;;;;5007504;28;20196;-65
2022/05/02 00:19:31;;;;;;;3.73;2.73;;;;;;;;;;5015444;28;20223;-64
2022/05/02 00:22:01;;;;;;;2.97;2.77;;;;;;;;;;5004007;28;20440;-64
2022/05/02 00:24:30;;;;;;;3.03;2.80;;;;;;;;;;5014562;28;20195;-64
2022/05/02 00:27:03;;;;;;;3.00;2.80;;;;;;;;;;5010805;28;20663;-64
2022/05/02 00:29:35;;;;;;;4.00;3.20;;;;;;;;;;5027222;28;20203;-64
2022/05/02 00:32:07;;;;;;;2.77;2.57;;;;;;;;;;5010361;28;20192;-64
2022/05/02 00:34:39;;;;;;;3.67;3.30;;;;;;;;;;5006705;28;20212;-64
2022/05/02 00:37:07;;;;;;;3.10;2.90;;;;;;;;;;5023510;28;20629;-65
2022/05/02 00:39:39;;;;;;;3.30;3.10;;;;;;;;;;5013094;28;20215;-64
2022/05/02 00:42:09;;;;;;;2.80;2.60;;;;;;;;;;5027697;28;20635;-64
2022/05/02 00:44:43;;;;;;;3.30;3.00;;;;;;;;;;5027472;28;20190;-64
2022/05/02 00:47:20;;;;;;;2.87;2.60;;;;;;;;;;5007245;28;20258;-64
2022/05/02 00:49:51;;;;;;;3.03;2.83;;;;;;;;;;5012340;28;20211;-64
2022/05/02 00:52:22;;;;;;;3.63;3.00;;;;;;;;;;4997419;28;20211;-64
2022/05/02 00:54:51;;;;;;;3.13;2.93;;;;;;;;;;5014584;28;20215;-64
2022/05/02 00:57:23;;;;;;;3.47;3.20;;;;;;;;;;5027701;28;20211;-64
2022/05/02 00:59:56;;;;;;;3.67;3.20;;;;;;;;;;5024088;28;20231;-64
2022/05/02 01:02:28;;;;;;;3.53;3.23;;;;;;;;;;5024466;28;20688;-64
2022/05/02 01:05:02;;;;;;;3.10;2.90;;;;;;;;;;5017143;28;20755;-64
2022/05/02 01:07:34;;;;;;;3.70;3.40;;;;;;;;;;5011320;28;20755;-63
2022/05/02 01:10:04;;;;;;;3.47;3.17;;;;;;;;;;5016588;28;20230;-64
2022/05/02 01:12:35;;;;;;;3.33;3.03;;;;;;;;;;5030408;28;20198;-64
2022/05/02 01:15:05;;;;;;;3.30;3.10;;;;;;;;;;5010284;28;20207;-64
2022/05/02 01:17:52;;;;;;;3.60;3.30;;;;;;;;;;5007577;28;20181;-64
2022/05/02 01:20:22;;;;;;;3.60;3.30;;;;;;;;;;5019968;28;20751;-64
2022/05/02 01:22:54;;;;;;;3.30;3.00;;;;;;;;;;5014320;28;20231;-64
2022/05/02 01:25:26;;;;;;;3.30;3.00;;;;;;;;;;5020029;28;20199;-64
2022/05/02 01:27:57;;;;;;;4.00;3.70;;;;;;;;;;5028767;28;20637;-64
2022/05/02 01:30:29;;;;;;;3.47;3.17;;;;;;;;;;5028973;28;20711;-63
2022/05/02 01:33:01;;;;;;;3.40;3.10;;;;;;;;;;5010966;28;20607;-64
2022/05/02 01:35:31;;;;;;;3.10;2.80;;;;;;;;;;5017664;28;20215;-64
2022/05/02 01:38:04;;;;;;;3.10;2.90;;;;;;;;;;5031133;28;20188;-64
2022/05/02 01:40:36;;;;;;;3.67;3.37;;;;;;;;;;5014213;28;20195;-64
2022/05/02 01:43:04;;;;;;;3.00;2.80;;;;;;;;;;5013895;28;20199;-63
2022/05/02 01:45:35;;;;;;;3.97;3.67;;;;;;;;;;5030273;28;20215;-64
2022/05/02 01:48:02;;;;;;;3.50;3.20;;;;;;;;;;5017228;28;20524;-64
2022/05/02 01:50:34;;;;;;;3.80;3.50;;;;;;;;;;5018991;28;20205;-64
2022/05/02 01:53:01;;;;;;;3.17;2.97;;;;;;;;;;5030810;28;20715;-63
2022/05/02 01:55:30;;;;;;;3.70;3.13;;;;;;;;;;5030556;28;20191;-63
2022/05/02 01:58:00;;;;;;;4.43;3.50;;;;;;;;;;5025940;28;20205;-64
2022/05/02 02:00:36;;;;;;;3.10;2.90;;;;;;;;;;5017080;28;20233;-64
2022/05/02 02:03:05;;;;;;;3.50;3.20;;;;;;;;;;5012376;28;20212;-63
2022/05/02 02:05:51;;;;;;;3.17;2.90;;;;;;;;;;5014613;28;20218;-63
2022/05/02 02:08:32;;;;;;;3.37;3.07;;;;;;;;;;5014287;28;20612;-64
2022/05/02 02:11:01;;;;;;;3.80;3.50;;;;;;;;;;5024069;28;20540;-64
2022/05/02 02:13:36;;;;;;;3.17;2.97;;;;;;;;;;5011053;28;20595;-64
2022/05/02 02:16:07;;;;;;;3.63;3.33;;;;;;;;;;5019454;28;20230;-63
2022/05/02 02:18:42;;;;;;;3.73;3.43;;;;;;;;;;5008989;28;20231;-64
2022/05/02 02:21:14;;;;;;;3.33;3.13;;;;;;;;;;5002614;28;20213;-64
2022/05/02 02:23:46;;;;;;;3.43;3.13;;;;;;;;;;5003897;28;20286;-63
2022/05/02 02:26:16;;;;;;;3.30;3.10;;;;;;;;;;5019355;28;20207;-64
2022/05/02 02:28:47;;;;;;;3.40;3.10;;;;;;;;;;5010225;28;20283;-63
2022/05/02 02:31:18;;;;;;;3.73;3.43;;;;;;;;;;5010149;28;20215;-64
2022/05/02 02:33:50;;;;;;;3.73;3.43;;;;;;;;;;5003556;28;20591;-64
2022/05/02 02:36:23;;;;;;;3.83;3.20;;;;;;;;;;5019165;28;20528;-63
2022/05/02 02:38:55;;;;;;;3.83;3.53;;;;;;;;;;5028323;28;20273;-64
2022/05/02 02:41:52;;;;;;;3.63;3.33;;;;;;;;;;5025249;28;20564;-64
2022/05/02 02:44:26;;;;;;;3.83;3.53;;;;;;;;;;5018772;28;20192;-64
2022/05/02 02:46:55;;;;;;;3.77;3.10;;;;;;;;;;5020638;28;20219;-64
2022/05/02 02:49:27;;;;;;;4.93;3.00;;;;;;;;;;5028374;28;20730;-64
2022/05/02 02:51:57;;;;;;;3.67;3.37;;;;;;;;;;5025658;28;20199;-64
2022/05/02 02:54:29;;;;;;;3.30;3.10;;;;;;;;;;5026224;28;20245;-63
2022/05/02 02:57:01;;;;;;;3.90;3.60;;;;;;;;;;5022654;28;20212;-64
2022/05/02 02:59:30;;;;;;;3.37;3.07;;;;;;;;;;4849410;28;4104782;-64
2022/05/02 03:02:01;;;;;;;3.20;3.00;;;;;;;;;;5019822;28;20210;-64
2022/05/02 03:07:26;;;;;;;4.17;3.77;;;;;;;;;;5012998;28;20590;-64
2022/05/02 03:09:54;;;;;;;3.40;3.10;;;;;;;;;;5023809;28;20699;-64
2022/05/02 03:12:25;;;;;;;3.40;3.10;;;;;;;;;;5002247;28;20207;-63
2022/05/02 03:14:56;;;;;;;3.73;3.20;;;;;;;;;;4991891;28;20199;-64
2022/05/02 03:17:27;;;;;;;3.50;3.20;;;;;;;;;;5024457;28;20209;-63
2022/05/02 03:19:58;;;;;;;4.17;3.57;;;;;;;;;;5026407;28;20203;-64
2022/05/02 03:22:25;;;;;;;4.03;3.73;;;;;;;;;;5015408;28;20594;-64
2022/05/02 03:24:55;;;;;;;3.60;3.30;;;;;;;;;;5009043;28;20196;-64
2022/05/02 03:27:24;;;;;;;3.23;3.03;;;;;;;;;;5022539;28;20668;-64
2022/05/02 03:29:55;;;;;;;3.60;3.30;;;;;;;;;;5025214;28;20191;-64
2022/05/02 03:32:27;;;;;;;4.00;3.70;;;;;;;;;;5027628;28;20621;-63
2022/05/02 03:34:59;;;;;;;4.13;3.83;;;;;;;;;;5025149;28;20253;-63
2022/05/02 03:37:28;;;;;;;3.27;3.07;;;;;;;;;;5027593;28;20668;-64
2022/05/02 03:39:57;;;;;;;3.60;3.30;;;;;;;;;;5021179;28;20211;-63
2022/05/02 03:42:27;;;;;;;3.13;2.93;;;;;;;;;;5020961;28;20215;-64
2022/05/02 03:44:56;;;;;;;3.87;3.57;;;;;;;;;;5027859;28;20191;-63
2022/05/02 03:47:26;;;;;;;3.90;3.60;;;;;;;;;;5024996;28;20206;-64
2022/05/02 03:49:59;;;;;;;4.10;3.70;;;;;;;;;;5024944;28;20199;-63
2022/05/02 03:52:30;;;;;;;3.20;3.00;;;;;;;;;;5024117;28;20199;-63
2022/05/02 03:54:59;;;;;;;4.00;3.60;;;;;;;;;;4999079;28;20626;-64
2022/05/02 03:58:07;;;;;;;4.00;3.60;;;;;;;;;;4976980;28;20204;-64
2022/05/02 04:00:45;;;;;;;4.17;3.80;;;;;;;;;;5011356;28;20208;-62
2022/05/02 04:03:17;;;;;;;4.40;4.00;;;;;;;;;;4990567;28;20203;-64
2022/05/02 04:05:50;;;;;;;4.17;3.87;;;;;;;;;;5023045;28;20230;-63
2022/05/02 04:08:32;;;;;;;3.63;3.33;;;;;;;;;;5019079;28;20226;-64
2022/05/02 04:11:01;;;;;;;3.70;3.40;;;;;;;;;;5006066;28;20206;-64
2022/05/02 04:13:29;;;;;;;3.93;3.53;;;;;;;;;;5026842;28;20195;-64
2022/05/02 04:16:00;;;;;;;5.70;4.20;;;;;;;;;;5016061;28;20194;-63
2022/05/02 04:18:27;;;;;;;3.97;3.67;;;;;;;;;;5026760;28;20209;-64
2022/05/02 04:21:01;;;;;;;4.20;3.80;;;;;;;;;;5011028;28;20305;-63
2022/05/02 04:23:33;;;;;;;3.93;3.63;;;;;;;;;;5008973;28;20218;-63
2022/05/02 04:26:05;;;;;;;4.30;3.90;;;;;;;;;;5006891;28;20198;-63
2022/05/02 04:28:36;;;;;;;4.63;4.23;;;;;;;;;;5026386;28;20211;-63
2022/05/02 04:31:06;;;;;;;4.20;3.80;;;;;;;;;;5027686;28;20217;-63
2022/05/02 04:33:41;;;;;;;4.30;3.90;;;;;;;;;;5022498;28;20190;-63
2022/05/02 04:36:11;;;;;;;3.87;3.57;;;;;;;;;;5005158;28;20234;-64
2022/05/02 04:38:39;;;;;;;4.93;4.03;;;;;;;;;;5026316;28;20199;-64
2022/05/02 04:41:07;;;;;;;4.50;4.10;;;;;;;;;;5009816;28;20195;-64
2022/05/02 04:43:39;;;;;;;4.53;4.13;;;;;;;;;;5024336;28;20187;-63
2022/05/02 04:46:13;;;;;;;4.20;3.80;;;;;;;;;;5025052;28;20207;-64
2022/05/02 04:48:44;;;;;;;3.93;3.63;;;;;;;;;;5010843;28;20196;-64
2022/05/02 04:51:15;;;;;;;4.17;3.77;;;;;;;;;;4989597;28;20210;-64
2022/05/02 04:53:42;;;;;;;4.80;3.80;;;;;;;;;;5005211;28;20318;-64
2022/05/02 04:56:11;;;;;;;4.20;3.90;;;;;;;;;;5010509;28;20785;-63
2022/05/02 04:58:43;;;;;;;4.07;3.70;;;;;;;;;;5024951;28;20223;-63
2022/05/02 05:01:13;;;;;;;4.10;3.80;;;;;;;;;;5026840;28;20171;-64
2022/05/02 05:03:44;;;;;;;3.83;3.50;;;;;;;;;;5024428;28;20534;-64
2022/05/02 05:06:15;;;;;;;4.40;4.10;;;;;;;;;;5008208;28;20226;-64
2022/05/02 05:08:45;;;;;;;4.40;4.00;;;;;;;;;;5023386;28;20203;-65
2022/05/02 05:11:35;;;;;;;4.03;3.73;;;;;;;;;;5023782;28;20410;-64
2022/05/02 05:17:09;;;;;;;4.37;4.07;;;;;;;;;;5010048;28;20282;-64
2022/05/02 05:19:56;;;;;;;4.57;4.17;;;;;;;;;;5010466;28;20235;-64
2022/05/02 05:22:44;;;;;;;3.90;3.60;;;;;;;;;;5008657;28;20211;-64
2022/05/02 05:25:31;;;;;;;3.97;3.50;;;;;;;;;;5026769;28;20740;-64
2022/05/02 05:28:16;;;;;;;4.17;3.87;;;;;;;;;;5024728;28;20859;-64
2022/05/02 05:30:47;;;;;;;4.50;4.10;;;;;;;;;;5027004;28;20194;-64
2022/05/02 05:33:22;;;;;;;4.30;3.90;;;;;;;;;;4998291;28;20226;-63
2022/05/02 05:36:04;;;;;;;4.50;4.10;;;;;;;;;;5001518;28;20238;-64
2022/05/02 05:38:57;;;;;;;5.33;4.20;;;;;;;;;;5005767;28;20186;-64
2022/05/02 05:41:46;;;;;;;4.73;4.33;;;;;;;;;;5026775;28;20191;-63
2022/05/02 05:44:35;;;;;;;4.60;4.20;;;;;;;;;;5003739;28;20206;-64
2022/05/02 05:47:08;;;;;;;4.37;4.07;;;;;;;;;;5013138;28;20203;-63
2022/05/02 05:49:55;;;;;;;4.20;3.67;;;;;;;;;;5006278;28;20996;-63
2022/05/02 05:52:27;;;;;;;4.60;4.20;;;;;;;;;;5011714;28;20207;-63
2022/05/02 05:55:01;;;;;;;4.53;4.13;;;;;;;;;;5014133;28;20203;-63
2022/05/02 05:57:53;;;;;;;4.43;4.03;;;;;;;;;;5009227;28;20208;-62
2022/05/02 06:00:24;;;;;;;4.17;3.77;;;;;;;;;;4992761;28;20212;-62
2022/05/02 06:03:23;;;;;;;5.03;4.53;;;;;;;;;;5009542;28;20208;-61
2022/05/02 06:05:51;;;;;;;4.40;4.00;;;;;;;;;;4971144;28;20213;-64
2022/05/02 06:08:46;;;;;;;4.77;4.37;;;;;;;;;;5007690;28;20196;-63
2022/05/02 06:11:16;;;;;;;5.33;4.40;;;;;;;;;;4988121;28;20225;-62
2022/05/02 06:13:47;;;;;;;5.10;4.60;;;;;;;;;;5020462;28;20216;-62
2022/05/02 06:19:10;;;;;;;4.97;4.43;;;;;;;;;;4999032;28;20192;-63
2022/05/02 06:21:44;;;;;;;4.87;4.30;;;;;;;;;;5004579;28;20254;-62
2022/05/02 06:24:17;;;;;;;5.23;4.60;;;;;;;;;;5003878;28;20188;-62
2022/05/02 06:26:50;;;;;;;4.20;3.90;;;;;;;;;;4995481;28;20216;-64
2022/05/02 06:29:24;;;;;;;4.63;4.23;;;;;;;;;;5006574;28;20192;-64
2022/05/02 06:32:00;;;;;;;5.10;4.60;;;;;;;;;;4997631;28;20239;-64
2022/05/02 06:34:34;;;;;;;4.63;4.23;;;;;;;;;;5003179;28;20277;-63
2022/05/02 06:37:08;;;;;;;5.27;4.60;;;;;;;;;;5021583;28;20210;-62
2022/05/02 06:39:47;;;;;;;3.93;3.60;;;;;;;;;;5025958;28;20660;-62
2022/05/02 06:42:39;;;;;;;6.03;4.77;;;;;;;;;;5011413;28;20210;-62
2022/05/02 06:45:26;;;;;;;5.33;4.43;;;;;;;;;;5028893;28;20609;-62
2022/05/02 06:48:06;;;;;;;5.27;4.40;;;;;;;;;;5025824;28;20215;-62
2022/05/02 06:50:35;;;;;;;5.87;4.60;;;;;;;;;;4990288;28;20208;-62
2022/05/02 06:53:17;;;;;;;5.20;4.37;;;;;;;;;;5007374;28;20247;-62
2022/05/02 06:55:50;;;;;;;4.63;4.23;;;;;;;;;;5002528;28;20197;-63
2022/05/02 06:58:40;;;;;;;4.63;4.10;;;;;;;;;;4992342;28;20655;-63
2022/05/02 07:01:15;;;;;;;5.13;4.63;;;;;;;;;;5029232;28;20218;-62
2022/05/02 07:03:59;;;;;;;4.13;3.73;;;;;;;;;;5026001;28;20179;-62
2022/05/02 07:06:45;;;;;;;3.97;3.57;;;;;;;;;;5028839;28;20191;-62
2022/05/02 07:09:18;;;;;;;4.27;3.87;;;;;;;;;;5007814;28;20613;-62
2022/05/02 07:11:56;;;;;;;4.20;3.80;;;;;;;;;;5020514;28;20286;-64
2022/05/02 07:14:48;;;;;;;4.33;3.73;;;;;;;;;;5018756;28;20280;-64
2022/05/02 07:17:37;;;;;;;4.07;3.73;;;;;;;;;;4981810;28;20212;-63
2022/05/02 07:20:09;;;;;;;4.23;3.80;;;;;;;;;;5012268;28;20230;-62
2022/05/02 07:22:41;;;;;;;4.57;4.00;;;;;;;;;;5014618;28;20207;-62
2022/05/02 07:25:31;;;;;;;4.10;3.70;;;;;;;;;;5006248;28;20292;-62
2022/05/02 07:28:31;;;;;;;4.13;3.73;;;;;;;;;;5026761;28;20258;-63
2022/05/02 07:31:03;;;;;;;4.83;3.30;;;;;;;;;;5028035;28;20218;-62
2022/05/02 07:33:35;;;;;;;5.07;3.63;;;;;;;;;;5011217;28;20273;-63
2022/05/02 07:36:07;;;;;;;3.70;3.40;;;;;;;;;;5022966;28;20805;-63
2022/05/02 07:38:37;;;;;;;3.60;3.30;;;;;;;;;;5008725;28;20273;-63
2022/05/02 07:41:28;;;;;;;3.40;3.10;;;;;;;;;;4998667;28;20305;-64
2022/05/02 07:44:05;;;;;;;3.77;3.47;;;;;;;;;;4992515;28;20221;-64
2022/05/02 07:46:49;;;;;;;3.30;3.00;;;;;;;;;;5026365;28;20250;-64
2022/05/02 07:49:28;;;;;;;3.27;2.97;;;;;;;;;;5011755;28;20195;-63
2022/05/02 07:52:04;;;;;;;3.70;3.20;;;;;;;;;;5008559;28;20195;-63
2022/05/02 07:54:45;;;;;;;3.60;3.30;;;;;;;;;;5027821;28;20199;-62
2022/05/02 07:57:23;;;;;;;3.03;2.83;;;;;;;;;;5028280;28;20191;-62
2022/05/02 08:00:00;;;;;;;3.53;3.23;;;;;;;;;;5006862;28;20536;-62
2022/05/02 08:02:32;;;;;;;3.23;2.93;;;;;;;;;;5011587;28;20661;-63
2022/05/02 08:05:05;;;;;;;3.37;2.70;;;;;;;;;;5011158;28;20206;-63
2022/05/02 08:07:39;;;;;;;3.33;2.80;;;;;;;;;;4990075;28;20322;-61
2022/05/02 08:10:29;;;;;;;2.77;2.57;;;;;;;;;;5008230;28;20207;-62
2022/05/02 08:13:22;;;;;;;3.97;3.57;;;;;;;;;;5028360;28;20202;-62
2022/05/02 08:16:15;;;;;;;3.00;2.60;;;;;;;;;;5015769;28;20195;-62
2022/05/02 08:18:43;;;;;;;2.97;2.77;;;;;;;;;;5008725;28;20196;-63
2022/05/02 08:21:25;;;;;;;3.07;2.87;;;;;;;;;;5026436;28;20272;-61
2022/05/02 08:29:40;;;;;;;4.13;3.07;;;;;;;;;;4995947;28;20214;-62
2022/05/02 08:32:15;;;;;;;2.77;2.57;;;;;;;;;;5024037;28;20202;-61
2022/05/02 08:34:46;;;;;;;4.23;3.00;;;;;;;;;;4993664;28;20289;-61
2022/05/02 08:37:52;;;;;;;3.00;2.63;;;;;;;;;;5011109;28;20199;-61
2022/05/02 08:40:30;;;;;;;3.13;2.83;;;;;;;;;;4979184;28;20529;-61
2022/05/02 08:43:19;;;;;;;3.73;2.90;;;;;;;;;;5008299;28;20183;-61
2022/05/02 08:46:06;;;;;;;3.17;2.53;;;;;;;;;;5018157;28;20242;-63
2022/05/02 08:49:32;;;;;;;3.60;3.00;;;;;;;;;;5027674;28;20292;-62
2022/05/02 08:52:02;;;;;;;2.70;2.50;;;;;;;;;;4985191;28;20196;-62
2022/05/02 08:55:06;;;;;;;2.87;2.67;;;;;;;;;;4991598;28;20188;-62
2022/05/02 08:57:44;;;;;;;2.80;2.60;;;;;;;;;;5024766;28;20182;-61
2022/05/02 09:00:24;;;;;;;2.93;2.70;;;;;;;;;;5015360;28;20230;-62
2022/05/02 09:03:37;;;;;;;2.93;2.70;;;;;;;;;;4988080;28;20215;-62
2022/05/02 09:06:24;;;;;;;3.50;3.20;;;;;;;;;;5017853;28;20206;-61
2022/05/02 09:09:07;;;;;;;2.70;2.50;;;;;;;;;;5010799;28;20190;-61
2022/05/02 09:11:37;;;;;;;2.97;2.77;;;;;;;;;;5024492;28;20211;-62
2022/05/02 09:14:28;;;;;;;3.13;2.83;;;;;;;;;;5026811;28;20172;-62
2022/05/02 09:17:16;;;;;;;2.83;2.63;;;;;;;;;;5010056;28;20619;-61
2022/05/02 09:20:05;;;;;;;2.70;2.50;;;;;;;;;;5005615;28;20241;-61
2022/05/02 09:22:43;;;;;;;3.47;3.03;;;;;;;;;;5017322;28;20208;-61
2022/05/02 09:25:30;;;;;;;3.63;3.33;;;;;;;;;;5015364;28;20206;-62
2022/05/02 09:28:16;;;;;;;3.00;2.80;;;;;;;;;;5029180;28;20175;-62
2022/05/02 09:30:56;;;;;;;3.50;3.13;;;;;;;;;;5019173;28;20640;-64
2022/05/02 09:33:32;;;;;;;2.70;2.50;;;;;;;;;;5031037;28;20192;-63
2022/05/02 09:36:21;;;;;;;2.73;2.53;;;;;;;;;;5027574;28;20246;-63
2022/05/02 09:39:01;;;;;;;3.03;2.80;;;;;;;;;;5030548;28;20199;-62
2022/05/02 09:41:59;;;;;;;2.97;2.70;;;;;;;;;;5027804;28;20297;-64
2022/05/02 09:51:02;;;;;;;3.43;3.13;;;;;;;;;;5030304;28;20195;-64
2022/05/02 09:53:52;;;;;;;3.03;2.80;;;;;;;;;;5030699;28;20190;-63
2022/05/02 09:59:30;;;;;;;2.73;2.53;;;;;;;;;;4977246;28;20235;-63
2022/05/02 10:02:09;;;;;;;3.40;3.10;;;;;;;;;;5002379;28;20242;-64
2022/05/02 10:05:09;;;;;;;2.77;2.57;;;;;;;;;;5010547;28;20199;-64
2022/05/02 10:07:50;;;;;;;3.40;3.17;;;;;;;;;;4961012;28;20239;-64
2022/05/02 10:10:26;;;;;;;3.43;3.13;;;;;;;;;;4990047;28;20204;-64
2022/05/02 10:13:15;;;;;;;3.67;3.20;;;;;;;;;;5030596;28;20179;-63
2022/05/02 10:16:08;;;;;;;3.07;2.77;;;;;;;;;;5023594;28;20245;-63
2022/05/02 10:19:00;;;;;;;3.07;2.80;;;;;;;;;;5030375;28;20617;-64
2022/05/02 10:21:39;;;;;;;3.07;2.83;;;;;;;;;;5027346;28;20550;-63
2022/05/02 10:24:09;;;;;;;3.33;3.07;;;;;;;;;;5010295;28;20616;-63
2022/05/02 10:26:53;;;;;;;3.23;2.90;;;;;;;;;;5011012;28;20613;-63
2022/05/02 10:29:27;;;;;;;3.43;3.13;;;;;;;;;;5030014;28;20171;-64
2022/05/02 10:32:19;;;;;;;4.47;3.43;;;;;;;;;;5026595;28;20203;-64
2022/05/02 10:34:53;;;;;;;3.93;3.30;;;;;;;;;;5008876;28;20721;-64
2022/05/02 10:37:32;;;;;;;4.30;3.90;;;;;;;;;;5013230;28;20624;-64
2022/05/02 10:40:12;;;;;;;3.17;2.97;;;;;;;;;;5007227;28;20446;-63
2022/05/02 10:42:51;;;;;;;4.50;3.60;;;;;;;;;;5026669;28;20234;-63
2022/05/02 10:45:21;;;;;;;3.07;2.77;;;;;;;;;;5029420;28;20191;-62
2022/05/02 10:47:58;;;;;;;3.27;2.97;;;;;;;;;;5024294;28;20211;-63
2022/05/02 10:50:32;;;;;;;3.47;3.17;;;;;;;;;;5012738;28;20280;-64
2022/05/02 10:53:20;;;;;;;3.17;2.97;;;;;;;;;;5026136;28;20662;-63
2022/05/02 10:55:56;;;;;;;4.40;4.00;;;;;;;;;;5007026;28;20195;-63
2022/05/02 10:58:28;;;;;;;3.77;2.93;;;;;;;;;;5009966;28;20242;-63
2022/05/02 11:01:04;;;;;;;3.17;2.97;;;;;;;;;;5011182;28;20199;-63
2022/05/02 11:03:42;;;;;;;3.20;2.90;;;;;;;;;;5029072;28;20198;-62
2022/05/02 11:06:33;;;;;;;3.73;3.20;;;;;;;;;;5028790;28;21415;-63
2022/05/02 11:09:10;;;;;;;3.27;2.97;;;;;;;;;;5028964;28;20190;-63
2022/05/02 11:11:52;;;;;;;3.57;2.80;;;;;;;;;;5024670;28;20202;-63
2022/05/02 11:14:51;;;;;;;2.80;2.60;;;;;;;;;;5028229;28;20249;-64
2022/05/02 11:17:38;;;;;;;3.37;3.07;;;;;;;;;;5012530;28;20382;-63
2022/05/02 11:23:07;;;;;;;3.67;3.37;;;;;;;;;;5005145;28;20223;-63
2022/05/02 11:25:40;;;;;;;3.20;2.90;;;;;;;;;;5009488;28;20507;-64
2022/05/02 11:28:29;;;;;;;3.43;3.07;;;;;;;;;;5026581;28;20191;-63
2022/05/02 11:31:18;;;;;;;2.90;2.70;;;;;;;;;;5028723;28;20269;-63
2022/05/02 11:33:56;;;;;;;2.80;2.60;;;;;;;;;;5023583;28;20183;-62
2022/05/02 11:36:31;;;;;;;2.93;2.63;;;;;;;;;;5028303;28;20303;-63
2022/05/02 11:39:08;;;;;;;2.97;2.77;;;;;;;;;;5028498;28;20195;-63
2022/05/02 11:41:43;;;;;;;3.33;3.10;;;;;;;;;;5014341;28;20268;-63
2022/05/02 11:44:15;;;;;;;4.10;3.70;;;;;;;;;;5010735;28;20643;-63
2022/05/02 11:46:57;;;;;;;3.40;3.10;;;;;;;;;;5026327;28;20206;-63
2022/05/02 11:49:37;;;;;;;3.10;2.90;;;;;;;;;;5024673;28;20601;-63
2022/05/02 11:52:14;;;;;;;3.13;2.87;;;;;;;;;;5014993;28;20253;-64
2022/05/02 11:54:49;;;;;;;2.77;2.57;;;;;;;;;;5012244;28;20210;-64
2022/05/02 11:57:28;;;;;;;3.27;2.97;;;;;;;;;;5027592;28;20203;-62
2022/05/02 12:00:17;;;;;;;3.73;2.83;;;;;;;;;;5013108;28;20224;-63
2022/05/02 12:02:59;;;;;;;3.50;3.20;;;;;;;;;;5016524;28;20257;-62
2022/05/02 12:05:35;;;;;;;3.30;3.10;;;;;;;;;;5028082;28;20229;-62
2022/05/02 12:08:06;;;;;;;2.83;2.60;;;;;;;;;;5009105;28;20257;-62
2022/05/02 12:10:46;;;;;;;2.63;2.40;;;;;;;;;;5008631;28;20294;-62
2022/05/02 12:13:20;;;;;;;2.57;2.37;;;;;;;;;;5028073;28;20629;-62
2022/05/02 12:16:12;;;;;;;3.90;3.17;;;;;;;;;;4985278;28;20199;-63
2022/05/02 12:18:48;;;;;;;3.80;3.50;;;;;;;;;;5008513;28;20199;-63
2022/05/02 12:21:36;;;;;;;3.40;3.17;;;;;;;;;;5007866;28;20270;-62
2022/05/02 12:24:06;;;;;;;4.40;4.00;;;;;;;;;;5005425;28;20720;-63
2022/05/02 12:26:50;;;;;;;3.97;3.67;;;;;;;;;;5008954;28;20204;-62
2022/05/02 12:29:21;;;;;;;4.33;3.93;;;;;;;;;;5007948;28;20199;-62
2022/05/02 12:32:15;;;;;;;4.13;3.83;;;;;;;;;;5005674;28;20215;-62
2022/05/02 12:34:52;;;;;;;5.03;2.93;;;;;;;;;;5024892;28;20211;-62
2022/05/02 12:37:39;;;;;;;3.60;3.30;;;;;;;;;;5027103;28;20230;-62
2022/05/02 12:40:25;;;;;;;3.37;3.07;;;;;;;;;;5020504;28;20294;-62
2022/05/02 12:43:05;;;;;;;2.60;2.40;;;;;;;;;;5015749;28;20206;-62
2022/05/02 12:45:48;;;;;;;2.97;2.77;;;;;;;;;;5007334;28;20203;-63
2022/05/02 12:48:29;;;;;;;2.60;2.40;;;;;;;;;;5013140;28;20187;-62
2022/05/02 12:50:59;;;;;;;3.40;2.70;;;;;;;;;;5009978;28;20210;-62
2022/05/02 12:56:14;;;;;;;4.17;3.50;;;;;;;;;;5031556;28;20183;-63
2022/05/02 13:01:44;;;;;;;2.73;2.40;;;;;;;;;;5011867;28;20213;-63
2022/05/02 13:04:17;;;;;;;2.67;2.47;;;;;;;;;;5028692;28;20187;-63
2022/05/02 13:06:50;;;;;;;2.60;2.40;;;;;;;;;;5015061;28;20201;-62
2022/05/02 13:09:35;;;;;;;2.53;2.33;;;;;;;;;;5031254;28;20270;-62
2022/05/02 13:12:10;;;;;;;3.20;3.00;;;;;;;;;;5029347;28;20787;-63
2022/05/02 13:14:40;;;;;;;3.40;2.47;;;;;;;;;;5017350;28;20203;-62
2022/05/02 13:17:13;;;;;;;2.20;2.10;;;;;;;;;;4975618;28;20286;-62
2022/05/02 13:19:44;;;;;;;2.97;2.20;;;;;;;;;;5010460;28;20203;-62
2022/05/02 13:22:20;;;;;;;2.47;2.23;;;;;;;;;;5019608;28;20724;-62
2022/05/02 13:24:54;;;;;;;3.23;2.50;;;;;;;;;;4991805;28;20196;-62
2022/05/02 13:27:27;;;;;;;2.97;2.77;;;;;;;;;;4991576;28;20200;-62
2022/05/02 13:30:00;;;;;;;3.17;2.97;;;;;;;;;;4988866;28;20227;-62
2022/05/02 13:33:00;;;;;;;3.50;3.20;;;;;;;;;;4991753;28;20733;-63
2022/05/02 13:35:39;;;;;;;3.47;3.20;;;;;;;;;;4978274;28;20208;-63
2022/05/02 13:38:18;;;;;;;3.57;3.27;;;;;;;;;;5001502;28;20179;-63
2022/05/02 13:40:49;;;;;;;4.23;3.60;;;;;;;;;;5019928;28;20211;-62
2022/05/02 13:43:36;;;;;;;3.40;3.10;;;;;;;;;;5016011;28;20220;-63
2022/05/02 13:46:24;;;;;;;3.43;3.23;;;;;;;;;;5002439;28;20211;-62
2022/05/02 13:49:39;;;;;;;3.23;3.00;;;;;;;;;;5024064;28;20195;-62
2022/05/02 13:52:13;;;;;;;3.00;2.80;;;;;;;;;;5030836;28;20187;-63
2022/05/02 13:54:49;;;;;;;3.00;2.80;;;;;;;;;;5030565;28;20183;-62
2022/05/02 13:57:35;;;;;;;3.43;2.80;;;;;;;;;;5030957;28;20218;-63
2022/05/02 14:03:13;;;;;;;2.63;2.43;;;;;;;;;;5010681;28;20282;-63
2022/05/02 14:05:52;;;;;;;2.37;2.17;;;;;;;;;;5028033;28;20675;-62
2022/05/02 14:08:38;;;;;;;3.03;2.83;;;;;;;;;;5029954;28;20198;-62
2022/05/02 14:11:18;;;;;;;3.40;3.10;;;;;;;;;;5010414;28;20234;-63
2022/05/02 14:14:13;;;;;;;3.20;2.90;;;;;;;;;;4998602;28;20195;-62
2022/05/02 14:16:46;;;;;;;3.23;2.97;;;;;;;;;;5014323;28;20184;-62
2022/05/02 14:19:22;;;;;;;3.50;3.20;;;;;;;;;;5020646;28;20244;-62
2022/05/02 14:21:52;;;;;;;2.60;2.40;;;;;;;;;;5020026;28;20207;-63
2022/05/02 14:24:26;;;;;;;2.67;2.47;;;;;;;;;;5004244;28;20624;-63
2022/05/02 14:27:00;;;;;;;3.23;3.00;;;;;;;;;;5030429;28;20203;-62
2022/05/02 14:29:34;;;;;;;3.47;3.17;;;;;;;;;;5029763;28;20199;-63
2022/05/02 14:32:07;;;;;;;3.53;3.23;;;;;;;;;;5028245;28;20203;-63
2022/05/02 14:34:43;;;;;;;3.00;2.80;;;;;;;;;;5019949;28;20672;-62
2022/05/02 14:37:22;;;;;;;3.00;2.67;;;;;;;;;;5014746;28;20199;-61
2022/05/02 14:39:54;;;;;;;3.00;2.80;;;;;;;;;;5019550;28;20187;-61
2022/05/02 14:42:31;;;;;;;2.73;2.53;;;;;;;;;;5008070;28;20273;-61
2022/05/02 14:45:06;;;;;;;3.10;2.83;;;;;;;;;;5023937;28;20190;-62
2022/05/02 14:47:39;;;;;;;2.57;2.37;;;;;;;;;;5026588;28;20652;-62
2022/05/02 14:50:11;;;;;;;2.53;2.33;;;;;;;;;;5012181;28;20236;-62
2022/05/02 14:52:43;;;;;;;3.13;2.43;;;;;;;;;;5029369;28;20695;-62
2022/05/02 14:55:35;;;;;;;2.73;2.53;;;;;;;;;;5012440;28;20253;-62
2022/05/02 14:58:06;;;;;;;2.77;2.57;;;;;;;;;;5025327;28;20238;-61
2022/05/02 15:00:56;;;;;;;3.53;3.23;;;;;;;;;;4988733;28;20259;-62
2022/05/02 15:03:46;;;;;;;3.57;3.27;;;;;;;;;;4989982;28;20196;-62
2022/05/02 15:06:26;;;;;;;3.70;3.40;;;;;;;;;;4975385;28;20216;-62
2022/05/02 15:09:22;;;;;;;3.47;3.17;;;;;;;;;;4989358;28;20665;-61
2022/05/02 15:12:05;;;;;;;3.00;2.80;;;;;;;;;;4984652;28;20213;-62
2022/05/02 15:14:35;;;;;;;3.97;2.90;;;;;;;;;;4972507;28;20207;-62
2022/05/02 15:17:21;;;;;;;3.27;3.07;;;;;;;;;;4989594;28;20275;-61
2022/05/02 15:20:11;;;;;;;3.30;3.10;;;;;;;;;;4986286;28;20716;-61
2022/05/02 15:22:51;;;;;;;3.00;2.80;;;;;;;;;;4987065;28;20239;-61
2022/05/02 15:25:23;;;;;;;2.90;2.70;;;;;;;;;;5002464;28;20203;-61
2022/05/02 15:36:50;;;;;;;3.40;2.80;;;;;;;;;;4989068;28;20251;-61
2022/05/02 15:39:32;;;;;;;3.20;3.00;;;;;;;;;;4976583;28;20204;-61
2022/05/02 15:42:05;;;;;;;3.33;2.70;;;;;;;;;;4967023;28;20225;-61
2022/05/02 15:44:37;;;;;;;3.60;2.87;;;;;;;;;;4957063;28;20214;-61
2022/05/02 15:47:14;;;;;;;3.23;2.97;;;;;;;;;;4986603;28;20208;-62
2022/05/02 15:50:02;;;;;;;3.40;2.90;;;;;;;;;;4968700;28;20295;-62
2022/05/02 15:52:32;;;;;;;3.63;3.33;;;;;;;;;;4989085;28;20190;-61
2022/05/02 15:55:13;;;;;;;3.30;3.00;;;;;;;;;;4970516;28;20208;-61
2022/05/02 15:57:48;;;;;;;3.20;2.90;;;;;;;;;;4983920;28;20204;-62
2022/05/02 16:00:19;;;;;;;3.80;3.50;;;;;;;;;;4996737;28;20246;-62
2022/05/02 16:03:09;;;;;;;3.20;2.90;;;;;;;;;;5018915;28;20204;-64
2022/05/02 16:05:53;;;;;;;3.17;2.83;;;;;;;;;;5018116;28;20543;-61
2022/05/02 16:11:16;;;;;;;3.37;3.07;;;;;;;;;;5017259;28;20217;-61
2022/05/02 16:13:51;;;;;;;2.87;2.67;;;;;;;;;;5007933;28;20191;-61
2022/05/02 16:16:22;;;;;;;2.60;2.40;;;;;;;;;;5014281;28;20211;-62
2022/05/02 16:18:53;;;;;;;2.97;2.77;;;;;;;;;;5007736;28;20199;-62
2022/05/02 16:21:26;;;;;;;3.13;2.83;;;;;;;;;;5004928;28;20203;-61
2022/05/02 16:24:00;;;;;;;3.30;2.83;;;;;;;;;;5001943;28;20318;-61
2022/05/02 16:26:29;;;;;;;4.10;3.70;;;;;;;;;;4992197;28;20196;-61
2022/05/02 16:29:15;;;;;;;4.03;3.73;;;;;;;;;;5000736;28;20764;-61
2022/05/02 16:31:46;;;;;;;4.13;3.23;;;;;;;;;;5005298;28;20200;-61